createdAt,value
2018-08-09T09:07:24.166Z,5.63
2018-08-09T09:08:24.143Z,5.63
2018-08-09T09:10:17.540Z,5.63
2018-08-09T09:11:17.540Z,5.63
2018-08-09T09:13:27.338Z,185.63
2018-08-09T09:14:26.010Z,151.88
2018-08-09T09:15:25.839Z,157.50
2018-08-09T09:16:33.963Z,174.38
2018-08-09T09:18:20.924Z,202.50
2018-08-09T09:20:42.967Z,78.75
2018-08-09T09:21:42.968Z,95.63
2018-08-09T09:22:42.972Z,129.38
2018-08-09T09:23:42.976Z,135.00
2018-08-09T09:24:43.000Z,135.00
2018-08-09T09:25:42.991Z,140.63
2018-08-09T09:26:42.996Z,118.13
2018-08-09T09:27:43.004Z,106.88
2018-08-09T09:28:43.011Z,135.00
2018-08-09T09:29:43.018Z,140.63
2018-08-09T09:30:43.026Z,118.13
2018-08-09T09:31:43.034Z,106.88
2018-08-09T09:32:43.041Z,101.25
2018-08-09T09:33:43.048Z,112.50
2018-08-09T09:34:43.055Z,106.88
2018-08-09T09:35:43.067Z,135.00
2018-08-09T09:36:43.072Z,140.63
2018-08-09T09:37:43.086Z,146.25
2018-08-09T09:38:43.089Z,151.88
2018-08-09T09:39:43.098Z,151.88
2018-08-09T09:40:43.117Z,151.88
2018-08-09T09:41:43.119Z,151.88
2018-08-09T09:42:43.123Z,151.88
2018-08-09T09:43:43.133Z,151.88
2018-08-09T09:44:43.145Z,151.88
2018-08-09T09:45:43.152Z,151.88
2018-08-09T09:46:43.161Z,118.13
2018-08-09T09:47:43.168Z,146.25
2018-08-09T09:48:43.178Z,151.88
2018-08-09T09:49:43.235Z,163.13
2018-08-09T09:50:43.203Z,140.63
2018-08-09T09:51:43.207Z,140.63
2018-08-09T09:52:43.217Z,146.25
2018-08-09T09:53:43.225Z,146.25
2018-08-09T09:54:43.236Z,163.13
2018-08-09T09:55:43.281Z,163.13
2018-08-09T09:56:43.263Z,151.88
2018-08-09T09:57:43.264Z,163.13
2018-08-09T09:58:43.274Z,146.25
2018-08-09T09:59:43.283Z,151.88
2018-08-09T10:00:43.297Z,146.25
2018-08-09T10:01:43.367Z,146.25
2018-08-09T10:02:43.313Z,146.25
2018-08-09T10:03:43.327Z,151.88
2018-08-09T10:04:43.335Z,140.63
2018-08-09T10:05:43.345Z,140.63
2018-08-09T10:06:43.353Z,129.38
2018-08-09T10:07:43.368Z,129.38
2018-08-09T10:08:43.377Z,140.63
2018-08-09T10:09:43.385Z,123.75
2018-08-09T10:10:43.397Z,106.88
2018-08-09T10:11:43.408Z,129.38
2018-08-09T10:12:43.438Z,157.50
2018-08-09T10:13:43.426Z,101.25
2018-08-09T10:14:43.459Z,67.50
2018-08-09T10:15:43.448Z,61.88
2018-08-09T10:16:43.459Z,56.25
2018-08-09T10:17:43.474Z,56.25
2018-08-09T10:18:43.479Z,50.63
2018-08-09T10:19:43.518Z,56.25
2018-08-09T10:20:43.499Z,56.25
2018-08-09T10:21:43.510Z,61.88
2018-08-09T10:22:43.520Z,67.50
2018-08-09T10:23:43.532Z,61.88
2018-08-09T10:24:43.542Z,56.25
2018-08-09T10:25:43.553Z,56.25
2018-08-09T10:26:43.561Z,50.63
2018-08-09T10:27:43.573Z,45.00
2018-08-09T10:28:43.583Z,39.38
2018-08-09T10:29:43.593Z,33.75
2018-08-09T10:30:43.602Z,28.13
2018-08-09T10:31:43.614Z,28.13
2018-08-09T10:32:43.623Z,28.13
2018-08-09T10:33:43.632Z,28.13
2018-08-09T10:34:43.646Z,22.50
2018-08-09T10:35:43.654Z,22.50
2018-08-09T10:36:43.665Z,16.88
2018-08-09T10:37:43.671Z,16.88
2018-08-09T10:38:43.681Z,16.88
2018-08-09T10:39:43.693Z,16.88
2018-08-09T10:40:43.700Z,16.88
2018-08-09T10:41:43.712Z,16.88
2018-08-09T10:42:43.756Z,22.50
2018-08-09T10:43:43.727Z,22.50
2018-08-09T10:44:43.741Z,28.13
2018-08-09T10:45:43.748Z,45.00
2018-08-09T10:46:43.758Z,61.88
2018-08-09T10:47:43.767Z,67.50
2018-08-09T10:48:43.776Z,67.50
2018-08-09T10:49:43.785Z,61.88
2018-08-09T10:50:43.795Z,61.88
2018-08-09T10:51:43.804Z,61.88
2018-08-09T10:52:43.816Z,50.63
2018-08-09T10:53:43.823Z,50.63
2018-08-09T10:54:43.833Z,56.25
2018-08-09T10:55:43.896Z,56.25
2018-08-09T10:56:43.851Z,50.63
2018-08-09T10:57:43.859Z,45.00
2018-08-09T10:58:43.868Z,45.00
2018-08-09T10:59:43.884Z,45.00
2018-08-09T11:00:43.887Z,39.38
2018-08-09T11:01:43.933Z,39.38
2018-08-09T11:02:43.904Z,33.75
2018-08-09T11:03:43.914Z,28.13
2018-08-09T11:04:43.933Z,28.13
2018-08-09T11:05:43.932Z,28.13
2018-08-09T11:06:43.942Z,28.13
2018-08-09T11:07:43.950Z,22.50
2018-08-09T11:08:43.972Z,22.50
2018-08-09T11:09:43.969Z,22.50
2018-08-09T11:10:43.978Z,22.50
2018-08-09T11:11:43.987Z,22.50
2018-08-09T11:12:43.996Z,28.13
2018-08-09T11:13:44.006Z,39.38
2018-08-09T11:14:44.012Z,45.00
2018-08-09T11:15:44.021Z,45.00
2018-08-09T11:16:44.032Z,45.00
2018-08-09T11:17:44.038Z,45.00
2018-08-09T11:18:44.046Z,50.63
2018-08-09T11:19:44.055Z,50.63
2018-08-09T11:20:44.064Z,50.63
2018-08-09T11:21:44.071Z,50.63
2018-08-09T11:22:44.086Z,56.25
2018-08-09T11:23:44.157Z,61.88
2018-08-09T11:24:44.098Z,61.88
2018-08-09T11:25:44.105Z,67.50
2018-08-09T11:26:44.117Z,78.75
2018-08-09T11:27:44.123Z,106.88
2018-08-09T11:28:44.133Z,78.75
2018-08-09T11:29:44.142Z,73.13
2018-08-09T11:30:44.150Z,73.13
2018-08-09T11:31:44.158Z,67.50
2018-08-09T11:32:44.168Z,101.25
2018-08-09T11:33:44.177Z,73.13
2018-08-09T11:34:44.186Z,95.63
2018-08-09T11:35:44.194Z,73.13
2018-08-09T11:36:44.204Z,78.75
2018-08-09T11:37:44.226Z,135.00
2018-08-09T11:38:44.220Z,135.00
2018-08-09T11:39:44.270Z,129.38
2018-08-09T11:40:44.237Z,123.75
2018-08-09T11:41:44.245Z,123.75
2018-08-09T11:42:44.255Z,135.00
2018-08-09T11:43:44.265Z,123.75
2018-08-09T11:44:44.282Z,123.75
2018-08-09T11:45:44.284Z,106.88
2018-08-09T11:46:44.293Z,112.50
2018-08-09T11:47:44.303Z,118.13
2018-08-09T11:48:44.313Z,112.50
2018-08-09T11:49:44.322Z,61.88
2018-08-09T11:50:44.333Z,112.50
2018-08-09T11:51:44.345Z,112.50
2018-08-09T11:52:44.352Z,106.88
2018-08-09T11:53:44.362Z,112.50
2018-08-09T11:54:44.391Z,106.88
2018-08-09T11:55:44.383Z,106.88
2018-08-09T11:56:44.421Z,101.25
2018-08-09T11:57:44.403Z,106.88
2018-08-09T11:58:44.416Z,101.25
2018-08-09T11:59:44.423Z,95.63
2018-08-09T12:00:44.432Z,95.63
2018-08-09T12:01:44.496Z,61.88
2018-08-09T12:02:44.451Z,90.00
2018-08-09T12:03:44.463Z,106.88
2018-08-09T12:04:44.478Z,61.88
2018-08-09T12:05:44.483Z,56.25
2018-08-09T12:06:44.495Z,90.00
2018-08-09T12:07:44.504Z,84.38
2018-08-09T12:08:44.516Z,90.00
2018-08-09T12:09:44.526Z,90.00
2018-08-09T12:10:44.544Z,73.13
2018-08-09T12:11:44.547Z,67.50
2018-08-09T12:12:44.559Z,73.13
2018-08-09T12:13:44.567Z,73.13
2018-08-09T12:14:44.577Z,78.75
2018-08-09T12:15:44.588Z,90.00
2018-08-09T12:16:44.597Z,84.38
2018-08-09T12:17:44.607Z,61.88
2018-08-09T12:18:44.617Z,78.75
2018-08-09T12:19:44.629Z,73.13
2018-08-09T12:20:44.668Z,84.38
2018-08-09T12:21:44.653Z,78.75
2018-08-09T12:22:44.660Z,78.75
2018-08-09T12:23:44.671Z,67.50
2018-08-09T12:24:44.682Z,61.88
2018-08-09T12:25:44.693Z,56.25
2018-08-09T12:26:44.705Z,61.88
2018-08-09T12:27:44.713Z,61.88
2018-08-09T12:28:44.726Z,61.88
2018-08-09T12:29:44.732Z,56.25
2018-08-09T12:30:44.744Z,56.25
2018-08-09T12:31:44.754Z,56.25
2018-08-09T12:32:44.763Z,61.88
2018-08-09T12:33:44.773Z,61.88
2018-08-09T12:34:44.785Z,61.88
2018-08-09T12:35:44.795Z,61.88
2018-08-09T12:36:44.864Z,61.88
2018-08-09T12:37:44.813Z,78.75
2018-08-09T12:38:44.824Z,73.13
2018-08-09T12:39:44.845Z,73.13
2018-08-09T12:40:44.846Z,67.50
2018-08-09T12:41:44.856Z,61.88
2018-08-09T12:42:44.867Z,67.50
2018-08-09T12:43:44.876Z,73.13
2018-08-09T12:44:44.889Z,73.13
2018-08-09T12:45:44.898Z,67.50
2018-08-09T12:46:44.912Z,61.88
2018-08-09T12:47:44.919Z,61.88
2018-08-09T12:48:44.931Z,61.88
2018-08-09T12:49:44.939Z,61.88
2018-08-09T12:50:44.990Z,61.88
2018-08-09T12:51:44.969Z,56.25
2018-08-09T12:52:44.971Z,61.88
2018-08-09T12:53:44.981Z,61.88
2018-08-09T12:54:44.991Z,61.88
2018-08-09T12:55:45.002Z,61.88
2018-08-09T12:56:45.012Z,56.25
2018-08-09T12:57:45.023Z,56.25
2018-08-09T12:58:45.036Z,56.25
2018-08-09T12:59:45.045Z,61.88
2018-08-09T13:00:45.054Z,61.88
2018-08-09T13:01:45.063Z,61.88
2018-08-09T13:02:45.074Z,61.88
2018-08-09T13:03:45.084Z,61.88
2018-08-09T13:04:45.099Z,61.88
2018-08-09T13:05:45.123Z,56.25
2018-08-09T13:06:45.114Z,56.25
2018-08-09T13:07:45.126Z,56.25
2018-08-09T13:08:45.146Z,56.25
2018-08-09T13:09:45.149Z,56.25
2018-08-09T13:10:45.161Z,56.25
2018-08-09T13:11:45.172Z,50.63
2018-08-09T13:12:45.183Z,50.63
2018-08-09T13:13:45.191Z,45.00
2018-08-09T13:14:45.204Z,45.00
2018-08-09T13:15:45.213Z,45.00
2018-08-09T13:16:45.223Z,45.00
2018-08-09T13:17:45.233Z,50.63
2018-08-09T13:18:45.242Z,56.25
2018-08-09T13:19:45.251Z,56.25
2018-08-09T13:20:45.263Z,56.25
2018-08-09T13:21:45.273Z,67.50
2018-08-09T13:22:45.285Z,61.88
2018-08-09T13:23:45.295Z,67.50
2018-08-09T13:24:45.304Z,50.63
2018-08-09T13:25:45.322Z,45.00
2018-08-09T13:26:45.327Z,39.38
2018-08-09T13:27:45.338Z,39.38
2018-08-09T13:28:45.351Z,39.38
2018-08-09T13:29:45.368Z,39.38
2018-08-09T13:30:45.370Z,33.75
2018-08-09T13:31:45.380Z,33.75
2018-08-09T13:32:45.395Z,28.13
2018-08-09T13:33:45.441Z,22.50
2018-08-09T13:34:45.411Z,22.50
2018-08-09T13:35:45.422Z,22.50
2018-08-09T13:36:45.432Z,16.88
2018-08-09T13:37:45.443Z,11.25
2018-08-09T13:38:45.460Z,11.25
2018-08-09T13:39:45.465Z,5.63
2018-08-09T13:40:45.473Z,5.63
2018-08-09T13:41:45.484Z,5.63
2018-08-09T13:42:45.496Z,5.63
2018-08-09T13:43:45.511Z,5.63
2018-08-09T13:44:45.517Z,5.63
2018-08-09T13:45:45.525Z,5.63
2018-08-09T13:46:45.603Z,5.63
2018-08-09T13:47:45.544Z,5.63
2018-08-09T13:48:45.556Z,5.63
2018-08-09T13:49:45.578Z,5.63
2018-08-09T13:50:45.576Z,5.63
2018-08-09T13:51:45.590Z,5.63
2018-08-09T13:52:45.645Z,5.63
2018-08-09T13:53:45.608Z,5.63
2018-08-09T13:54:45.620Z,5.63
2018-08-09T13:55:45.629Z,5.63
2018-08-09T13:56:45.643Z,5.63
2018-08-09T13:57:45.649Z,5.63
2018-08-09T13:58:45.659Z,5.63
2018-08-09T13:59:45.671Z,5.63
2018-08-09T14:00:45.678Z,5.63
2018-08-09T14:01:45.691Z,11.25
2018-08-09T14:02:45.697Z,11.25
2018-08-09T14:03:45.752Z,11.25
2018-08-09T14:04:45.714Z,11.25
2018-08-09T14:05:45.724Z,11.25
2018-08-09T14:06:45.742Z,11.25
2018-08-09T14:07:45.745Z,11.25
2018-08-09T14:08:45.756Z,11.25
2018-08-09T14:09:45.762Z,11.25
2018-08-09T14:10:45.816Z,5.63
2018-08-09T14:11:45.781Z,5.63
2018-08-09T14:12:45.795Z,5.63
2018-08-09T14:13:45.801Z,5.63
2018-08-09T14:14:45.810Z,5.63
2018-08-09T14:15:45.818Z,5.63
2018-08-09T14:16:45.829Z,5.63
2018-08-09T14:17:45.862Z,5.63
2018-08-09T14:18:45.848Z,5.63
2018-08-09T14:19:45.859Z,11.25
2018-08-09T14:20:45.866Z,11.25
2018-08-09T14:21:45.874Z,16.88
2018-08-09T14:22:45.887Z,16.88
2018-08-09T14:23:45.892Z,16.88
2018-08-09T14:24:45.969Z,22.50
2018-08-09T14:25:45.910Z,22.50
2018-08-09T14:26:45.919Z,28.13
2018-08-09T14:27:45.930Z,28.13
2018-08-09T14:28:45.940Z,28.13
2018-08-09T14:29:45.947Z,33.75
2018-08-09T14:30:45.955Z,28.13
2018-08-09T14:31:45.965Z,28.13
2018-08-09T14:32:45.975Z,28.13
2018-08-09T14:33:45.987Z,28.13
2018-08-09T14:34:45.991Z,28.13
2018-08-09T14:35:46.003Z,22.50
2018-08-09T14:36:46.011Z,22.50
2018-08-09T14:37:46.035Z,22.50
2018-08-09T14:38:46.077Z,22.50
2018-08-09T14:39:46.042Z,22.50
2018-08-09T14:40:46.046Z,22.50
2018-08-09T14:41:46.056Z,22.50
2018-08-09T14:42:46.068Z,22.50
2018-08-09T14:43:46.074Z,22.50
2018-08-09T14:44:46.082Z,22.50
2018-08-09T14:45:46.090Z,22.50
2018-08-09T14:46:46.101Z,22.50
2018-08-09T14:47:46.158Z,22.50
2018-08-09T14:48:46.203Z,22.50
2018-08-09T14:49:46.124Z,22.50
2018-08-09T14:50:46.135Z,22.50
2018-08-09T14:51:46.146Z,22.50
2018-08-09T14:52:46.153Z,22.50
2018-08-09T14:53:46.176Z,22.50
2018-08-09T14:54:46.176Z,22.50
2018-08-09T14:55:46.186Z,16.88
2018-08-09T14:56:46.190Z,16.88
2018-08-09T14:57:46.209Z,22.50
2018-08-09T14:58:46.207Z,22.50
2018-08-09T14:59:46.259Z,22.50
2018-08-09T15:00:46.229Z,22.50
2018-08-09T15:01:46.242Z,22.50
2018-08-09T15:02:46.246Z,22.50
2018-08-09T15:03:46.255Z,22.50
2018-08-09T15:04:46.263Z,22.50
2018-08-09T15:05:46.278Z,22.50
2018-08-09T15:06:46.281Z,22.50
2018-08-09T15:07:46.289Z,22.50
2018-08-09T15:08:46.297Z,22.50
2018-08-09T15:09:46.305Z,22.50
2018-08-09T15:10:46.318Z,22.50
2018-08-09T15:11:46.325Z,22.50
2018-08-09T15:12:46.332Z,22.50
2018-08-09T15:13:46.345Z,22.50
2018-08-09T15:14:46.350Z,22.50
2018-08-09T15:15:46.359Z,28.13
2018-08-09T15:16:46.369Z,28.13
2018-08-09T15:17:46.378Z,28.13
2018-08-09T15:18:46.408Z,28.13
2018-08-09T15:19:46.396Z,28.13
2018-08-09T15:20:46.410Z,28.13
2018-08-09T15:21:46.412Z,28.13
2018-08-09T15:22:46.425Z,33.75
2018-08-09T15:23:46.433Z,33.75
2018-08-09T15:24:46.439Z,39.38
2018-08-09T15:25:46.458Z,39.38
2018-08-09T15:26:46.457Z,45.00
2018-08-09T15:27:46.466Z,50.63
2018-08-09T15:28:46.476Z,50.63
2018-08-09T15:29:46.501Z,56.25
2018-08-09T15:30:46.537Z,61.88
2018-08-09T15:31:46.501Z,61.88
2018-08-09T15:32:46.509Z,67.50
2018-08-09T15:33:46.518Z,73.13
2018-08-09T15:34:46.544Z,73.13
2018-08-09T15:35:46.541Z,56.25
2018-08-09T15:36:46.546Z,50.63
2018-08-09T15:37:46.554Z,50.63
2018-08-09T15:38:46.566Z,39.38
2018-08-09T15:39:46.579Z,50.63
2018-08-09T15:40:46.582Z,45.00
2018-08-09T15:41:46.590Z,39.38
2018-08-09T15:42:46.599Z,39.38
2018-08-09T15:43:46.612Z,39.38
2018-08-09T15:44:46.616Z,39.38
2018-08-09T15:45:46.625Z,39.38
2018-08-09T15:46:46.636Z,39.38
2018-08-09T15:47:46.717Z,39.38
2018-08-09T15:48:46.661Z,39.38
2018-08-09T15:49:46.663Z,39.38
2018-08-09T15:50:46.673Z,45.00
2018-08-09T15:51:46.682Z,45.00
2018-08-09T15:52:46.692Z,39.38
2018-08-09T15:53:46.700Z,45.00
2018-08-09T15:54:46.709Z,50.63
2018-08-09T15:55:46.716Z,50.63
2018-08-09T15:56:46.736Z,56.25
2018-08-09T15:57:46.759Z,45.00
2018-08-09T15:58:46.748Z,61.88
2018-08-09T15:59:46.758Z,61.88
2018-08-09T16:00:46.765Z,61.88
2018-08-09T16:01:46.771Z,61.88
2018-08-09T16:02:46.783Z,61.88
2018-08-09T16:03:46.789Z,56.25
2018-08-09T16:04:46.811Z,56.25
2018-08-09T16:05:46.809Z,50.63
2018-08-09T16:06:46.817Z,39.38
2018-08-09T16:07:46.849Z,33.75
2018-08-09T16:08:46.838Z,28.13
2018-08-09T16:09:46.845Z,28.13
2018-08-09T16:10:46.855Z,22.50
2018-08-09T16:11:46.867Z,22.50
2018-08-09T16:12:46.876Z,22.50
2018-08-09T16:13:46.886Z,16.88
2018-08-09T16:14:46.925Z,22.50
2018-08-09T16:15:46.906Z,22.50
2018-08-09T16:16:46.913Z,28.13
2018-08-09T16:17:46.921Z,45.00
2018-08-09T16:18:46.932Z,45.00
2018-08-09T16:19:46.942Z,39.38
2018-08-09T16:20:46.950Z,39.38
2018-08-09T16:21:46.958Z,28.13
2018-08-09T16:22:46.991Z,28.13
2018-08-09T16:23:46.980Z,28.13
2018-08-09T16:24:46.989Z,39.38
2018-08-09T16:25:47.007Z,39.38
2018-08-09T16:26:47.005Z,39.38
2018-08-09T16:27:47.015Z,39.38
2018-08-09T16:28:47.028Z,39.38
2018-08-09T16:29:47.033Z,39.38
2018-08-09T16:30:47.046Z,39.38
2018-08-09T16:31:47.053Z,33.75
2018-08-09T16:32:47.063Z,33.75
2018-08-09T16:33:47.072Z,28.13
2018-08-09T16:34:47.100Z,28.13
2018-08-09T16:35:47.091Z,22.50
2018-08-09T16:36:47.103Z,28.13
2018-08-09T16:37:47.108Z,28.13
2018-08-09T16:38:47.118Z,22.50
2018-08-09T16:39:47.127Z,22.50
2018-08-09T16:40:47.135Z,22.50
2018-08-09T16:41:47.151Z,22.50
2018-08-09T16:42:47.159Z,22.50
2018-08-09T16:43:47.172Z,22.50
2018-08-09T16:44:47.172Z,22.50
2018-08-09T16:45:47.180Z,22.50
2018-08-09T16:46:47.190Z,22.50
2018-08-09T16:47:47.202Z,22.50
2018-08-09T16:48:47.211Z,22.50
2018-08-09T16:49:47.218Z,16.88
2018-08-09T16:50:47.228Z,16.88
2018-08-09T16:51:47.240Z,16.88
2018-08-09T16:52:47.246Z,16.88
2018-08-09T16:53:47.256Z,16.88
2018-08-09T16:54:47.264Z,16.88
2018-08-09T16:55:47.272Z,16.88
2018-08-09T16:56:47.286Z,16.88
2018-08-09T16:57:47.292Z,11.25
2018-08-09T16:58:47.300Z,11.25
2018-08-09T16:59:47.306Z,11.25
2018-08-09T17:00:47.316Z,11.25
2018-08-09T17:01:47.325Z,11.25
2018-08-09T17:02:47.384Z,11.25
2018-08-09T17:03:47.343Z,11.25
2018-08-09T17:04:47.352Z,11.25
2018-08-09T17:05:47.361Z,11.25
2018-08-09T17:06:47.369Z,11.25
2018-08-09T17:07:47.378Z,11.25
2018-08-09T17:08:47.418Z,11.25
2018-08-09T17:09:47.401Z,11.25
2018-08-09T17:10:47.407Z,11.25
2018-08-09T17:11:47.413Z,16.88
2018-08-09T17:12:47.423Z,16.88
2018-08-09T17:13:47.432Z,16.88
2018-08-09T17:14:47.449Z,16.88
2018-08-09T17:15:47.451Z,16.88
2018-08-09T17:16:47.459Z,16.88
2018-08-09T17:17:47.480Z,16.88
2018-08-09T17:18:47.481Z,22.50
2018-08-09T17:19:47.491Z,22.50
2018-08-09T17:20:47.501Z,22.50
2018-08-09T17:21:47.505Z,22.50
2018-08-09T17:22:47.515Z,22.50
2018-08-09T17:23:47.523Z,22.50
2018-08-09T17:24:47.548Z,22.50
2018-08-09T17:25:47.544Z,22.50
2018-08-09T17:26:47.554Z,22.50
2018-08-09T17:27:47.557Z,22.50
2018-08-09T17:28:47.592Z,22.50
2018-08-09T17:29:47.573Z,22.50
2018-08-09T17:30:47.591Z,22.50
2018-08-09T17:31:47.599Z,22.50
2018-08-09T17:32:47.603Z,22.50
2018-08-09T17:33:47.612Z,22.50
2018-08-09T17:34:47.620Z,22.50
2018-08-09T17:35:47.630Z,22.50
2018-08-09T17:36:47.639Z,22.50
2018-08-09T17:37:47.648Z,22.50
2018-08-09T17:38:47.656Z,22.50
2018-08-09T17:39:47.669Z,22.50
2018-08-09T17:42:09.762Z,16.88
2018-08-09T17:43:09.760Z,16.88
2018-08-09T17:45:03.189Z,16.88
2018-08-09T17:46:03.197Z,16.88
2018-08-09T17:47:57.628Z,11.25
2018-08-09T17:48:57.619Z,11.25
2018-08-09T17:49:57.634Z,16.88
2018-08-09T17:50:57.638Z,16.88
2018-08-09T17:51:57.649Z,16.88
2018-08-09T17:52:57.655Z,16.88
2018-08-09T17:53:57.666Z,16.88
2018-08-09T17:54:57.675Z,11.25
2018-08-09T17:55:57.685Z,11.25
2018-08-09T17:56:57.693Z,11.25
2018-08-09T17:57:57.701Z,11.25
2018-08-09T17:58:57.713Z,16.88
2018-08-09T17:59:57.719Z,16.88
2018-08-09T18:00:57.729Z,16.88
2018-08-09T18:01:57.738Z,16.88
2018-08-09T18:02:57.750Z,16.88
2018-08-09T18:03:57.764Z,16.88
2018-08-09T18:04:57.793Z,16.88
2018-08-09T18:05:57.772Z,11.25
2018-08-09T18:06:57.784Z,11.25
2018-08-09T18:07:57.794Z,11.25
2018-08-09T18:08:57.802Z,11.25
2018-08-09T18:09:57.811Z,11.25
2018-08-09T18:10:57.822Z,5.63
2018-08-09T18:11:57.831Z,5.63
2018-08-09T18:12:57.839Z,11.25
2018-08-09T18:13:57.849Z,11.25
2018-08-09T18:14:57.856Z,11.25
2018-08-09T18:15:57.868Z,5.63
2018-08-09T18:16:57.875Z,5.63
2018-08-09T18:17:57.882Z,5.63
2018-08-09T18:18:57.893Z,5.63
2018-08-09T18:19:57.901Z,5.63
2018-08-09T18:20:57.910Z,5.63
2018-08-09T18:21:57.919Z,5.63
2018-08-09T18:22:57.929Z,5.63
2018-08-09T18:23:57.969Z,5.63
2018-08-09T18:24:57.945Z,0.00
2018-08-09T18:25:57.957Z,0.00
2018-08-09T18:26:57.966Z,0.00
2018-08-09T18:27:57.975Z,0.00
2018-08-09T18:28:57.983Z,0.00
2018-08-09T18:29:57.994Z,0.00
2018-08-09T18:30:58.053Z,0.00
2018-08-09T18:31:58.010Z,0.00
2018-08-09T18:32:58.077Z,0.00
2018-08-09T18:33:58.029Z,0.00
2018-08-09T18:34:58.038Z,0.00
2018-08-09T18:35:58.046Z,0.00
2018-08-09T18:36:58.055Z,0.00
2018-08-09T18:37:58.066Z,0.00
2018-08-09T18:38:58.078Z,0.00
2018-08-09T18:39:58.085Z,0.00
2018-08-09T18:40:58.090Z,0.00
2018-08-09T18:41:58.100Z,0.00
2018-08-09T18:42:58.120Z,0.00
2018-08-09T18:43:58.118Z,0.00
2018-08-09T18:44:58.124Z,0.00
2018-08-09T18:45:58.133Z,0.00
2018-08-09T18:46:58.143Z,0.00
2018-08-09T18:47:58.153Z,0.00
2018-08-09T18:48:58.166Z,0.00
2018-08-09T18:49:58.170Z,0.00
2018-08-09T18:50:58.179Z,0.00
2018-08-09T18:51:58.189Z,0.00
2018-08-09T18:52:58.195Z,0.00
2018-08-09T18:53:58.204Z,0.00
2018-08-09T18:54:58.215Z,0.00
2018-08-09T18:55:58.221Z,0.00
2018-08-09T18:56:58.230Z,0.00
2018-08-09T18:57:58.237Z,0.00
2018-08-09T18:58:58.247Z,0.00
2018-08-09T18:59:58.256Z,0.00
2018-08-09T19:00:58.267Z,0.00
2018-08-09T19:01:58.272Z,0.00
2018-08-09T19:02:58.281Z,0.00
2018-08-09T19:03:58.288Z,0.00
2018-08-09T19:06:21.382Z,0.00
2018-08-09T19:07:30.056Z,0.00
2018-08-09T19:09:25.853Z,0.00
2018-08-09T19:10:15.888Z,0.00
2018-08-09T19:11:15.826Z,0.00
2018-08-09T19:12:15.833Z,0.00
2018-08-09T19:13:15.848Z,0.00
2018-08-09T19:14:15.849Z,0.00
2018-08-09T19:15:15.859Z,0.00
2018-08-09T19:16:15.866Z,0.00
2018-08-09T19:17:15.872Z,0.00
2018-08-09T19:18:15.879Z,0.00
2018-08-09T19:19:15.892Z,0.00
2018-08-09T19:20:15.897Z,0.00
2018-08-09T19:21:15.905Z,0.00
2018-08-09T19:22:15.913Z,0.00
2018-08-09T19:23:16.068Z,0.00
2018-08-09T19:24:15.926Z,0.00
2018-08-09T19:25:15.936Z,0.00
2018-08-09T19:26:15.942Z,0.00
2018-08-09T19:27:15.991Z,0.00
2018-08-09T19:28:15.955Z,0.00
2018-08-09T19:29:15.965Z,0.00
2018-08-09T19:30:15.972Z,0.00
2018-08-09T19:31:15.980Z,0.00
2018-08-09T19:32:15.987Z,0.00
2018-08-09T19:33:17.892Z,0.00
2018-08-09T19:34:16.000Z,0.00
2018-08-09T19:35:16.009Z,0.00
2018-08-09T19:36:16.063Z,0.00
2018-08-09T19:37:16.027Z,0.00
2018-08-09T19:38:16.033Z,0.00
2018-08-09T19:40:39.123Z,0.00
2018-08-09T19:41:47.955Z,0.00
2018-08-09T19:43:33.519Z,0.00
2018-08-09T19:44:33.522Z,0.00
2018-08-09T19:46:56.632Z,0.00
2018-08-09T19:47:56.614Z,0.00
2018-08-09T19:48:56.594Z,0.00
2018-08-09T19:49:56.601Z,0.00
2018-08-09T19:50:56.621Z,0.00
2018-08-09T19:51:56.616Z,0.00
2018-08-09T19:52:56.623Z,0.00
2018-08-09T19:53:56.633Z,0.00
2018-08-09T19:56:19.725Z,0.00
2018-08-09T19:57:19.717Z,0.00
2018-08-09T19:58:20.166Z,0.00
2018-08-09T19:59:28.364Z,0.00
2018-08-09T20:01:14.498Z,0.00
2018-08-09T20:03:37.226Z,0.00
2018-08-09T20:04:37.217Z,0.00
2018-08-09T20:05:37.225Z,0.00
2018-08-09T20:06:37.234Z,0.00
2018-08-09T20:07:37.237Z,0.00
2018-08-09T20:08:37.243Z,0.00
2018-08-09T20:09:37.250Z,0.00
2018-08-09T20:10:37.271Z,0.00
2018-08-09T20:11:37.273Z,0.00
2018-08-09T20:12:37.269Z,0.00
2018-08-09T20:13:37.279Z,0.00
2018-08-09T20:14:37.282Z,0.00
2018-08-09T20:15:37.293Z,0.00
2018-08-09T20:16:37.297Z,0.00
2018-08-09T20:19:14.297Z,0.00
2018-08-09T20:20:14.187Z,0.00
2018-08-09T20:22:07.510Z,0.00
